Time;durP1;ratioP1;P1;durP2;ratioP2;P2;SDS_P1;SDS_P2;PMS_P1;PMS_P2;Temp;Humidity;BMP_temperature;BMP_pressure;BME280_temperature;BME280_humidity;BME280_pressure;Samples;Min_cycle;Max_cycle;Signal;HPM_P1;HPM_P2
2022/05/20 00:00:11;;;;;;;;;;;;;;;;;;5062901;28;19999;-57
2022/05/20 00:02:37;;;;;;;;;;;;;;;;;;5069751;28;19958;-57
2022/05/20 00:05:04;;;;;;;;;;;;;;;;;;5064103;28;19917;-58
2022/05/20 00:07:31;;;;;;;;;;;;;;;;;;5063859;28;20302;-58
2022/05/20 00:09:57;;;;;;;;;;;;;;;;;;5063297;28;19914;-57
2022/05/20 00:12:22;;;;;;;;;;;;;;;;;;5062970;28;19904;-57
2022/05/20 00:14:48;;;;;;;;;;;;;;;;;;5062263;28;19916;-57
2022/05/20 00:17:15;;;;;;;;;;;;;;;;;;5063086;28;19908;-57
2022/05/20 00:19:42;;;;;;;;;;;;;;;;;;5066068;28;20460;-57
2022/05/20 00:22:08;;;;;;;;;;;;;;;;;;5066690;28;20425;-57
2022/05/20 00:25:45;;;;;;;;;;;;;;;;;;5066557;28;20007;-58
2022/05/20 00:27:21;;;;;;;;;;;;;;;;;;5067400;28;19911;-58
2022/05/20 00:29:47;;;;;;;;;;;;;;;;;;5066864;28;19905;-58
2022/05/20 00:32:14;;;;;;;;;;;;;;;;;;5068074;28;19904;-58
2022/05/20 00:34:40;;;;;;;;;;;;;;;;;;5067365;28;19958;-57
2022/05/20 00:37:05;;;;;;;;;;;;;;;;;;5067892;28;19940;-58
2022/05/20 00:39:32;;;;;;;;;;;;;;;;;;5067452;28;20342;-57
2022/05/20 00:41:58;;;;;;;;;;;;;;;;;;5064815;28;19923;-58
2022/05/20 00:44:26;;;;;;;;;;;;;;;;;;5064084;28;19923;-60
2022/05/20 00:46:52;;;;;;;;;;;;;;;;;;5062983;28;19912;-60
2022/05/20 00:49:18;;;;;;;;;;;;;;;;;;5067012;28;19965;-60
2022/05/20 00:51:44;;;;;;;;;;;;;;;;;;5049770;28;19975;-60
2022/05/20 00:54:11;;;;;;;;;;;;;;;;;;5055781;28;19920;-60
2022/05/20 00:56:37;;;;;;;;;;;;;;;;;;5068916;28;19911;-60
2022/05/20 00:59:03;;;;;;;;;;;;;;;;;;5069115;28;19905;-60
2022/05/20 01:01:29;;;;;;;;;;;;;;;;;;5068998;28;19908;-60
2022/05/20 01:03:55;;;;;;;;;;;;;;;;;;5069051;28;19914;-60
2022/05/20 01:06:21;;;;;;;;;;;;;;;;;;5067785;28;20256;-60
2022/05/20 01:08:47;;;;;;;;;;;;;;;;;;5064211;28;20000;-60
2022/05/20 01:11:13;;;;;;;;;;;;;;;;;;5049679;28;20333;-60
2022/05/20 01:13:39;;;;;;;;;;;;;;;;;;5058718;28;20007;-60
2022/05/20 01:16:05;;;;;;;;;;;;;;;;;;5069088;28;19908;-60
2022/05/20 01:18:31;;;;;;;;;;;;;;;;;;5068714;28;19908;-60
2022/05/20 01:20:56;;;;;;;;;;;;;;;;;;5069058;28;20274;-60
2022/05/20 01:23:22;;;;;;;;;;;;;;;;;;5068745;28;19947;-60
2022/05/20 01:25:48;;;;;;;;;;;;;;;;;;5068462;28;19957;-60
2022/05/20 01:28:15;;;;;;;;;;;;;;;;;;5069558;28;19914;-60
2022/05/20 01:30:41;;;;;;;;;;;;;;;;;;5067847;28;19908;-60
2022/05/20 01:33:07;;;;;;;;;;;;;;;;;;5068583;28;19953;-60
2022/05/20 01:35:33;;;;;;;;;;;;;;;;;;5068179;28;19912;-60
2022/05/20 01:37:59;;;;;;;;;;;;;;;;;;5068796;28;19958;-60
2022/05/20 01:40:27;;;;;;;;;;;;;;;;;;5068259;28;19908;-60
2022/05/20 01:42:53;;;;;;;;;;;;;;;;;;5068333;28;19905;-59
2022/05/20 01:45:18;;;;;;;;;;;;;;;;;;5068503;28;19912;-59
2022/05/20 01:47:44;;;;;;;;;;;;;;;;;;5068741;28;19905;-60
2022/05/20 01:50:11;;;;;;;;;;;;;;;;;;5068586;28;20005;-60
2022/05/20 01:52:36;;;;;;;;;;;;;;;;;;5068207;28;19919;-60
2022/05/20 01:55:02;;;;;;;;;;;;;;;;;;5068093;28;19912;-60
2022/05/20 01:57:28;;;;;;;;;;;;;;;;;;5068108;28;19908;-60
2022/05/20 01:59:54;;;;;;;;;;;;;;;;;;5068139;28;19960;-60
2022/05/20 02:02:24;;;;;;;;;;;;;;;;;;5067920;28;19974;-60
2022/05/20 02:04:50;;;;;;;;;;;;;;;;;;5067913;28;19960;-60
2022/05/20 02:07:16;;;;;;;;;;;;;;;;;;5068632;28;19913;-60
2022/05/20 02:09:44;;;;;;;;;;;;;;;;;;5067275;28;19923;-60
2022/05/20 02:12:10;;;;;;;;;;;;;;;;;;5067987;28;19908;-60
2022/05/20 02:14:36;;;;;;;;;;;;;;;;;;5067722;28;20376;-60
2022/05/20 02:17:02;;;;;;;;;;;;;;;;;;5065961;28;19954;-60
2022/05/20 02:19:28;;;;;;;;;;;;;;;;;;5066083;28;19915;-60
2022/05/20 02:21:54;;;;;;;;;;;;;;;;;;5067106;28;20290;-60
2022/05/20 02:24:20;;;;;;;;;;;;;;;;;;5067550;28;19908;-60
2022/05/20 02:26:46;;;;;;;;;;;;;;;;;;5067270;28;19912;-60
2022/05/20 02:29:12;;;;;;;;;;;;;;;;;;5067435;28;19908;-60
2022/05/20 02:31:38;;;;;;;;;;;;;;;;;;5056685;28;20367;-60
2022/05/20 02:34:04;;;;;;;;;;;;;;;;;;5047457;28;19947;-59
2022/05/20 02:36:34;;;;;;;;;;;;;;;;;;5064264;28;20551;-59
2022/05/20 02:39:00;;;;;;;;;;;;;;;;;;5067381;28;19947;-60
2022/05/20 02:41:26;;;;;;;;;;;;;;;;;;5066999;28;19962;-59
2022/05/20 02:43:52;;;;;;;;;;;;;;;;;;5067334;28;19904;-60
2022/05/20 02:46:18;;;;;;;;;;;;;;;;;;5066902;28;19908;-60
2022/05/20 02:48:44;;;;;;;;;;;;;;;;;;5049623;28;20370;-60
2022/05/20 02:51:11;;;;;;;;;;;;;;;;;;5047638;28;19904;-60
2022/05/20 02:53:37;;;;;;;;;;;;;;;;;;5046650;28;19913;-60
2022/05/20 02:56:03;;;;;;;;;;;;;;;;;;5046866;28;19909;-60
2022/05/20 03:04:10;;;;;;;;;;;;;;;;;;5047134;28;19923;-60
2022/05/20 03:06:36;;;;;;;;;;;;;;;;;;5046560;28;19919;-60
2022/05/20 03:09:02;;;;;;;;;;;;;;;;;;5046624;28;19998;-60
2022/05/20 03:11:28;;;;;;;;;;;;;;;;;;5046678;28;19995;-61
2022/05/20 03:13:54;;;;;;;;;;;;;;;;;;5047040;28;19908;-60
2022/05/20 03:16:20;;;;;;;;;;;;;;;;;;5053951;28;19904;-60
2022/05/20 03:18:46;;;;;;;;;;;;;;;;;;5066924;28;19915;-60
2022/05/20 03:21:12;;;;;;;;;;;;;;;;;;5067384;28;19915;-60
2022/05/20 03:23:38;;;;;;;;;;;;;;;;;;5066524;28;19905;-60
2022/05/20 03:26:04;;;;;;;;;;;;;;;;;;5066601;28;20462;-60
2022/05/20 03:28:30;;;;;;;;;;;;;;;;;;5066650;28;19991;-60
2022/05/20 03:30:56;;;;;;;;;;;;;;;;;;5065770;28;19919;-60
2022/05/20 03:33:22;;;;;;;;;;;;;;;;;;5065709;28;20508;-60
2022/05/20 03:35:48;;;;;;;;;;;;;;;;;;5063856;28;19961;-60
2022/05/20 03:38:14;;;;;;;;;;;;;;;;;;5061165;28;19915;-60
2022/05/20 03:40:40;;;;;;;;;;;;;;;;;;5046731;28;19901;-59
2022/05/20 03:43:06;;;;;;;;;;;;;;;;;;5058529;28;19908;-59
2022/05/20 03:45:32;;;;;;;;;;;;;;;;;;5065970;28;19965;-60
2022/05/20 03:47:58;;;;;;;;;;;;;;;;;;5066579;28;19908;-60
2022/05/20 03:50:24;;;;;;;;;;;;;;;;;;5066109;28;19915;-60
2022/05/20 03:52:50;;;;;;;;;;;;;;;;;;5066615;28;19991;-60
2022/05/20 03:55:16;;;;;;;;;;;;;;;;;;5058325;28;19919;-60
2022/05/20 03:57:42;;;;;;;;;;;;;;;;;;5050906;28;19908;-60
2022/05/20 04:00:07;;;;;;;;;;;;;;;;;;5050261;28;19904;-60
2022/05/20 04:02:33;;;;;;;;;;;;;;;;;;5050373;28;20318;-60
2022/05/20 04:04:59;;;;;;;;;;;;;;;;;;5050285;28;19998;-60
2022/05/20 04:07:25;;;;;;;;;;;;;;;;;;5049893;28;19909;-59
2022/05/20 04:09:51;;;;;;;;;;;;;;;;;;5050439;28;20381;-60
2022/05/20 04:12:17;;;;;;;;;;;;;;;;;;5050437;28;19909;-60
2022/05/20 04:14:43;;;;;;;;;;;;;;;;;;5059258;28;19908;-60
2022/05/20 04:17:09;;;;;;;;;;;;;;;;;;5070358;28;19915;-60
2022/05/20 04:19:36;;;;;;;;;;;;;;;;;;5069165;28;19908;-60
2022/05/20 04:22:01;;;;;;;;;;;;;;;;;;5069895;28;19943;-60
2022/05/20 04:24:27;;;;;;;;;;;;;;;;;;5069698;28;19944;-60
2022/05/20 04:26:53;;;;;;;;;;;;;;;;;;5070441;28;20130;-60
2022/05/20 04:29:19;;;;;;;;;;;;;;;;;;5069517;28;19931;-60
2022/05/20 04:31:45;;;;;;;;;;;;;;;;;;5069452;28;20244;-60
2022/05/20 04:34:11;;;;;;;;;;;;;;;;;;5069866;28;19961;-59
2022/05/20 04:36:37;;;;;;;;;;;;;;;;;;5069377;28;19908;-59
2022/05/20 04:39:03;;;;;;;;;;;;;;;;;;5069085;28;19919;-59
2022/05/20 04:46:58;;;;;;;;;;;;;;;;;;5049401;28;20299;-59
2022/05/20 04:49:24;;;;;;;;;;;;;;;;;;5053584;28;19909;-60
2022/05/20 04:51:50;;;;;;;;;;;;;;;;;;5069501;28;19908;-60
2022/05/20 04:57:01;;;;;;;;;;;;;;;;;;5052009;28;20021;-59
2022/05/20 04:59:27;;;;;;;;;;;;;;;;;;5049155;28;19959;-60
2022/05/20 05:01:53;;;;;;;;;;;;;;;;;;5049976;28;19908;-59
2022/05/20 05:04:20;;;;;;;;;;;;;;;;;;5048877;28;20007;-60
2022/05/20 05:06:47;;;;;;;;;;;;;;;;;;5049124;28;19909;-60
2022/05/20 05:09:14;;;;;;;;;;;;;;;;;;5049254;28;19915;-60
2022/05/20 05:11:40;;;;;;;;;;;;;;;;;;5048952;28;19916;-59
2022/05/20 05:14:07;;;;;;;;;;;;;;;;;;5048919;28;19905;-59
2022/05/20 05:16:33;;;;;;;;;;;;;;;;;;5053843;28;19996;-59
2022/05/20 05:18:59;;;;;;;;;;;;;;;;;;5068884;28;19908;-59
2022/05/20 05:21:25;;;;;;;;;;;;;;;;;;5069304;28;19904;-59
2022/05/20 05:23:53;;;;;;;;;;;;;;;;;;5068994;28;19912;-59
2022/05/20 05:26:19;;;;;;;;;;;;;;;;;;5068642;28;19912;-59
2022/05/20 05:28:45;;;;;;;;;;;;;;;;;;5068350;28;20384;-59
2022/05/20 05:31:11;;;;;;;;;;;;;;;;;;5068278;28;20006;-59
2022/05/20 05:33:37;;;;;;;;;;;;;;;;;;5068364;28;19908;-59
2022/05/20 05:36:03;;;;;;;;;;;;;;;;;;5066377;28;19916;-59
2022/05/20 05:38:29;;;;;;;;;;;;;;;;;;5068278;28;19912;-59
2022/05/20 05:40:55;;;;;;;;;;;;;;;;;;5069147;28;19931;-59
2022/05/20 05:43:21;;;;;;;;;;;;;;;;;;5083594;28;19908;-59
2022/05/20 05:45:47;;;;;;;;;;;;;;;;;;5068047;28;20046;-59
2022/05/20 05:48:16;;;;;;;;;;;;;;;;;;5068169;28;20006;-59
2022/05/20 05:50:42;;;;;;;;;;;;;;;;;;5064719;28;19908;-59
2022/05/20 05:53:08;;;;;;;;;;;;;;;;;;5069013;28;19916;-58
2022/05/20 05:55:34;;;;;;;;;;;;;;;;;;5069045;28;19923;-58
2022/05/20 05:58:00;;;;;;;;;;;;;;;;;;5068627;28;19917;-58
2022/05/20 06:00:26;;;;;;;;;;;;;;;;;;5068007;28;19935;-57
2022/05/20 06:02:52;;;;;;;;;;;;;;;;;;5069112;28;19912;-59
2022/05/20 06:05:18;;;;;;;;;;;;;;;;;;5050033;28;19962;-58
2022/05/20 06:07:44;;;;;;;;;;;;;;;;;;5054845;28;19969;-58
2022/05/20 06:10:10;;;;;;;;;;;;;;;;;;5069284;28;20003;-59
2022/05/20 06:12:36;;;;;;;;;;;;;;;;;;5061737;28;20003;-58
2022/05/20 06:15:02;;;;;;;;;;;;;;;;;;5062123;28;19919;-58
2022/05/20 06:17:28;;;;;;;;;;;;;;;;;;5067566;28;19973;-58
2022/05/20 06:19:54;;;;;;;;;;;;;;;;;;5069248;28;19912;-58
2022/05/20 06:22:20;;;;;;;;;;;;;;;;;;5068971;28;19962;-58
2022/05/20 06:24:46;;;;;;;;;;;;;;;;;;5068832;28;19927;-59
2022/05/20 06:27:12;;;;;;;;;;;;;;;;;;5068821;28;19904;-58
2022/05/20 06:29:38;;;;;;;;;;;;;;;;;;5069427;28;19908;-59
2022/05/20 06:32:04;;;;;;;;;;;;;;;;;;5068887;28;19912;-58
2022/05/20 06:39:48;;;;;;;;;;;;;;;;;;5068495;28;20165;-59
2022/05/20 06:39:58;;;;;;;;;;;;;;;;;;5068113;28;19915;-58
2022/05/20 06:42:25;;;;;;;;;;;;;;;;;;5068840;28;19954;-59
2022/05/20 06:44:51;;;;;;;;;;;;;;;;;;5065565;28;19908;-59
2022/05/20 06:47:17;;;;;;;;;;;;;;;;;;5068696;28;19974;-60
2022/05/20 06:49:43;;;;;;;;;;;;;;;;;;5068848;28;20317;-59
2022/05/20 06:52:09;;;;;;;;;;;;;;;;;;5054254;28;19908;-61
2022/05/20 06:54:35;;;;;;;;;;;;;;;;;;5048938;28;19920;-60
2022/05/20 06:57:01;;;;;;;;;;;;;;;;;;5048575;28;19986;-58
2022/05/20 06:59:27;;;;;;;;;;;;;;;;;;5048378;28;20008;-59
2022/05/20 07:01:54;;;;;;;;;;;;;;;;;;5064752;28;19970;-59
2022/05/20 07:04:20;;;;;;;;;;;;;;;;;;5068283;28;20661;-59
2022/05/20 07:06:46;;;;;;;;;;;;;;;;;;5068327;28;20458;-59
2022/05/20 07:09:12;;;;;;;;;;;;;;;;;;5068282;28;20011;-60
2022/05/20 07:11:38;;;;;;;;;;;;;;;;;;5068840;28;19912;-59
2022/05/20 07:14:04;;;;;;;;;;;;;;;;;;5066207;28;19913;-58
2022/05/20 07:16:30;;;;;;;;;;;;;;;;;;5067323;28;19908;-58
2022/05/20 07:18:56;;;;;;;;;;;;;;;;;;5068147;28;19999;-59
2022/05/20 07:21:22;;;;;;;;;;;;;;;;;;5068263;28;19908;-59
2022/05/20 07:23:48;;;;;;;;;;;;;;;;;;5066177;28;19920;-61
2022/05/20 07:26:16;;;;;;;;;;;;;;;;;;5066947;28;19923;-59
2022/05/20 07:28:42;;;;;;;;;;;;;;;;;;5067290;28;19950;-61
2022/05/20 07:31:08;;;;;;;;;;;;;;;;;;5068559;28;19908;-58
2022/05/20 07:33:34;;;;;;;;;;;;;;;;;;5067165;28;19917;-60
2022/05/20 07:36:00;;;;;;;;;;;;;;;;;;5067920;28;19908;-60
2022/05/20 07:38:26;;;;;;;;;;;;;;;;;;5068071;28;19934;-60
2022/05/20 07:40:55;;;;;;;;;;;;;;;;;;5068155;28;19975;-61
2022/05/20 07:43:22;;;;;;;;;;;;;;;;;;5066449;28;19980;-60
2022/05/20 07:45:48;;;;;;;;;;;;;;;;;;5067844;28;20293;-61
2022/05/20 07:48:14;;;;;;;;;;;;;;;;;;5067943;28;19912;-63
2022/05/20 07:50:40;;;;;;;;;;;;;;;;;;5067932;28;20003;-61
2022/05/20 07:53:21;;;;;;;;;;;;;;;;;;5067643;28;19916;-60
2022/05/20 07:55:47;;;;;;;;;;;;;;;;;;5065709;28;19913;-60
2022/05/20 07:58:13;;;;;;;;;;;;;;;;;;5067212;28;19908;-60
2022/05/20 08:00:39;;;;;;;;;;;;;;;;;;5066813;28;19912;-60
2022/05/20 08:03:05;;;;;;;;;;;;;;;;;;5062185;28;19908;-60
2022/05/20 08:05:31;;;;;;;;;;;;;;;;;;5064635;28;19916;-62
2022/05/20 08:07:59;;;;;;;;;;;;;;;;;;5065332;28;19908;-60
2022/05/20 08:10:25;;;;;;;;;;;;;;;;;;5065756;28;20359;-60
2022/05/20 08:12:52;;;;;;;;;;;;;;;;;;5066347;28;19994;-61
2022/05/20 08:15:18;;;;;;;;;;;;;;;;;;5066644;28;20298;-59
2022/05/20 08:17:44;;;;;;;;;;;;;;;;;;5067692;28;19908;-61
2022/05/20 08:20:10;;;;;;;;;;;;;;;;;;5064103;28;19912;-59
2022/05/20 08:22:36;;;;;;;;;;;;;;;;;;5059434;28;20287;-60
2022/05/20 08:25:02;;;;;;;;;;;;;;;;;;5067258;28;20394;-61
2022/05/20 08:27:29;;;;;;;;;;;;;;;;;;5067045;28;19909;-59
2022/05/20 08:29:55;;;;;;;;;;;;;;;;;;5063862;28;20387;-59
2022/05/20 08:32:21;;;;;;;;;;;;;;;;;;5065919;28;19912;-60
2022/05/20 08:34:47;;;;;;;;;;;;;;;;;;5067834;28;19919;-59
2022/05/20 08:37:13;;;;;;;;;;;;;;;;;;5064236;28;20531;-59
2022/05/20 08:39:39;;;;;;;;;;;;;;;;;;5060568;28;19912;-59
2022/05/20 08:42:05;;;;;;;;;;;;;;;;;;5086574;28;19949;-59
2022/05/20 08:44:31;;;;;;;;;;;;;;;;;;5066916;28;20026;-59
2022/05/20 08:46:57;;;;;;;;;;;;;;;;;;5068731;28;19912;-59
2022/05/20 08:49:23;;;;;;;;;;;;;;;;;;5070957;28;19904;-60
2022/05/20 08:51:49;;;;;;;;;;;;;;;;;;5070909;28;19912;-59
2022/05/20 08:54:15;;;;;;;;;;;;;;;;;;5077012;28;19913;-60
2022/05/20 08:56:41;;;;;;;;;;;;;;;;;;5065731;28;19912;-58
2022/05/20 08:59:07;;;;;;;;;;;;;;;;;;5069529;28;20029;-60
2022/05/20 09:01:33;;;;;;;;;;;;;;;;;;5070639;28;19977;-59
2022/05/20 09:04:00;;;;;;;;;;;;;;;;;;5065217;28;20558;-59
2022/05/20 09:06:26;;;;;;;;;;;;;;;;;;5070199;28;19912;-59
2022/05/20 09:08:52;;;;;;;;;;;;;;;;;;5090785;28;19964;-58
2022/05/20 09:11:18;;;;;;;;;;;;;;;;;;5070605;28;19909;-59
2022/05/20 09:16:28;;;;;;;;;;;;;;;;;;5060704;28;20327;-59
2022/05/20 09:18:54;;;;;;;;;;;;;;;;;;5068343;28;19916;-60
2022/05/20 09:21:20;;;;;;;;;;;;;;;;;;5070165;28;19911;-59
2022/05/20 09:23:46;;;;;;;;;;;;;;;;;;5068958;28;19908;-59
2022/05/20 09:26:12;;;;;;;;;;;;;;;;;;5069850;28;19953;-58
2022/05/20 09:28:38;;;;;;;;;;;;;;;;;;5070839;28;19957;-59
2022/05/20 09:31:04;;;;;;;;;;;;;;;;;;5069730;28;19912;-60
2022/05/20 09:33:30;;;;;;;;;;;;;;;;;;5069370;28;19916;-59
2022/05/20 09:35:56;;;;;;;;;;;;;;;;;;5069888;28;19913;-59
2022/05/20 09:38:22;;;;;;;;;;;;;;;;;;5068988;28;19961;-59
2022/05/20 09:40:49;;;;;;;;;;;;;;;;;;5069742;28;19987;-58
2022/05/20 09:43:15;;;;;;;;;;;;;;;;;;5069821;28;19912;-59
2022/05/20 09:45:41;;;;;;;;;;;;;;;;;;5068553;28;19939;-59
2022/05/20 09:48:07;;;;;;;;;;;;;;;;;;5069675;28;19908;-58
2022/05/20 09:50:38;;;;;;;;;;;;;;;;;;5068909;28;19997;-59
2022/05/20 09:53:04;;;;;;;;;;;;;;;;;;5069565;28;19999;-64
2022/05/20 09:55:31;;;;;;;;;;;;;;;;;;5068707;28;20010;-61
2022/05/20 09:57:57;;;;;;;;;;;;;;;;;;5065044;28;19909;-60
2022/05/20 10:00:26;;;;;;;;;;;;;;;;;;5069172;28;20288;-59
2022/05/20 10:02:52;;;;;;;;;;;;;;;;;;5069396;28;19904;-62
2022/05/20 10:05:18;;;;;;;;;;;;;;;;;;5067391;28;19926;-59
2022/05/20 10:07:44;;;;;;;;;;;;;;;;;;5067536;28;19919;-58
2022/05/20 10:10:10;;;;;;;;;;;;;;;;;;5069127;28;19964;-60
2022/05/20 10:12:38;;;;;;;;;;;;;;;;;;5068976;28;19909;-60
2022/05/20 10:15:04;;;;;;;;;;;;;;;;;;5069005;28;19908;-59
2022/05/20 10:17:30;;;;;;;;;;;;;;;;;;5067630;28;19965;-58
2022/05/20 10:19:55;;;;;;;;;;;;;;;;;;5069392;28;19912;-59
2022/05/20 10:22:21;;;;;;;;;;;;;;;;;;5069068;28;19908;-60
2022/05/20 10:24:47;;;;;;;;;;;;;;;;;;5067529;28;19909;-59
2022/05/20 10:27:14;;;;;;;;;;;;;;;;;;5083972;28;20412;-59
2022/05/20 10:32:34;;;;;;;;;;;;;;;;;;5065935;28;19967;-60
2022/05/20 10:35:00;;;;;;;;;;;;;;;;;;5065064;28;19912;-62
2022/05/20 10:37:26;;;;;;;;;;;;;;;;;;5068004;28;19908;-58
2022/05/20 10:39:52;;;;;;;;;;;;;;;;;;5068280;28;19912;-59
2022/05/20 10:42:18;;;;;;;;;;;;;;;;;;5069769;28;20317;-61
2022/05/20 10:50:14;;;;;;;;;;;;;;;;;;5059734;28;19919;-60
2022/05/20 10:52:39;;;;;;;;;;;;;;;;;;5069768;28;20283;-61
2022/05/20 10:55:05;;;;;;;;;;;;;;;;;;5069342;28;19912;-61
2022/05/20 10:57:31;;;;;;;;;;;;;;;;;;5069436;28;19908;-62
2022/05/20 10:59:58;;;;;;;;;;;;;;;;;;5068079;28;19923;-60
2022/05/20 11:02:24;;;;;;;;;;;;;;;;;;5067847;28;20367;-63
2022/05/20 11:04:50;;;;;;;;;;;;;;;;;;5068292;28;19953;-61
2022/05/20 11:07:16;;;;;;;;;;;;;;;;;;5068447;28;19912;-61
2022/05/20 11:09:42;;;;;;;;;;;;;;;;;;5060468;28;19905;-61
2022/05/20 11:12:08;;;;;;;;;;;;;;;;;;5064351;28;19915;-62
2022/05/20 11:14:34;;;;;;;;;;;;;;;;;;5068559;28;19916;-60
2022/05/20 11:16:59;;;;;;;;;;;;;;;;;;5068952;28;19954;-61
2022/05/20 11:19:25;;;;;;;;;;;;;;;;;;5069131;28;19991;-61
2022/05/20 11:21:51;;;;;;;;;;;;;;;;;;5067962;28;19913;-59
2022/05/20 11:24:18;;;;;;;;;;;;;;;;;;5069130;28;19943;-59
2022/05/20 11:26:43;;;;;;;;;;;;;;;;;;5069423;28;19963;-59
2022/05/20 11:29:09;;;;;;;;;;;;;;;;;;5068438;28;19955;-61
2022/05/20 11:31:35;;;;;;;;;;;;;;;;;;5069016;28;19908;-60
2022/05/20 11:34:02;;;;;;;;;;;;;;;;;;5067029;28;19908;-61
2022/05/20 11:36:28;;;;;;;;;;;;;;;;;;5068495;28;20439;-61
2022/05/20 11:38:54;;;;;;;;;;;;;;;;;;5067353;28;20011;-61
2022/05/20 11:41:22;;;;;;;;;;;;;;;;;;5067607;28;19943;-62
2022/05/20 11:43:48;;;;;;;;;;;;;;;;;;5068858;28;19911;-61
2022/05/20 11:46:14;;;;;;;;;;;;;;;;;;5065535;28;19916;-67
2022/05/20 11:48:40;;;;;;;;;;;;;;;;;;5067481;28;19961;-62
2022/05/20 11:51:06;;;;;;;;;;;;;;;;;;5068612;28;19908;-62
2022/05/20 11:53:34;;;;;;;;;;;;;;;;;;5068661;28;19912;-62
2022/05/20 11:56:00;;;;;;;;;;;;;;;;;;5067925;28;19905;-62
2022/05/20 11:58:26;;;;;;;;;;;;;;;;;;5067626;28;19916;-62
2022/05/20 12:00:52;;;;;;;;;;;;;;;;;;5067380;28;19905;-62
2022/05/20 12:03:18;;;;;;;;;;;;;;;;;;5067201;28;19927;-63
2022/05/20 12:05:44;;;;;;;;;;;;;;;;;;5067862;28;19951;-61
2022/05/20 12:08:10;;;;;;;;;;;;;;;;;;5067290;28;19904;-61
2022/05/20 12:10:36;;;;;;;;;;;;;;;;;;5067553;28;19923;-62
2022/05/20 12:13:01;;;;;;;;;;;;;;;;;;5067404;28;19904;-62
2022/05/20 12:15:27;;;;;;;;;;;;;;;;;;5070195;28;19904;-60
2022/05/20 12:17:53;;;;;;;;;;;;;;;;;;5070950;28;19951;-62
2022/05/20 12:25:48;;;;;;;;;;;;;;;;;;5071007;28;19970;-62
2022/05/20 12:28:14;;;;;;;;;;;;;;;;;;5071834;28;20277;-62
2022/05/20 12:30:40;;;;;;;;;;;;;;;;;;5071041;28;20256;-64
2022/05/20 12:33:06;;;;;;;;;;;;;;;;;;5070732;28;19912;-66
2022/05/20 12:35:32;;;;;;;;;;;;;;;;;;5070721;28;19904;-64
2022/05/20 12:37:58;;;;;;;;;;;;;;;;;;5070531;28;19908;-62
2022/05/20 12:40:24;;;;;;;;;;;;;;;;;;5071042;28;20007;-62
2022/05/20 12:42:50;;;;;;;;;;;;;;;;;;5070978;28;19974;-62
2022/05/20 12:45:16;;;;;;;;;;;;;;;;;;5071411;28;20280;-60
2022/05/20 12:47:41;;;;;;;;;;;;;;;;;;5070604;28;19911;-60
2022/05/20 12:50:07;;;;;;;;;;;;;;;;;;5070358;28;20279;-63
2022/05/20 12:52:33;;;;;;;;;;;;;;;;;;5070379;28;20783;-63
2022/05/20 12:54:59;;;;;;;;;;;;;;;;;;5069920;28;19920;-59
2022/05/20 12:57:26;;;;;;;;;;;;;;;;;;5070760;28;19904;-61
2022/05/20 12:59:52;;;;;;;;;;;;;;;;;;5070626;28;20299;-60
2022/05/20 13:02:18;;;;;;;;;;;;;;;;;;5070848;28;19909;-61
2022/05/20 13:04:44;;;;;;;;;;;;;;;;;;5069926;28;19909;-62
2022/05/20 13:07:11;;;;;;;;;;;;;;;;;;5070032;28;19912;-62
2022/05/20 13:09:37;;;;;;;;;;;;;;;;;;5070070;28;19912;-64
2022/05/20 13:12:03;;;;;;;;;;;;;;;;;;5070293;28;19901;-63
2022/05/20 13:14:29;;;;;;;;;;;;;;;;;;5070202;28;20295;-61
2022/05/20 13:16:55;;;;;;;;;;;;;;;;;;5070612;28;19901;-63
2022/05/20 13:19:21;;;;;;;;;;;;;;;;;;5069781;28;19904;-61
2022/05/20 13:21:47;;;;;;;;;;;;;;;;;;5070518;28;19908;-63
2022/05/20 13:24:13;;;;;;;;;;;;;;;;;;5069746;28;19954;-63
2022/05/20 13:26:41;;;;;;;;;;;;;;;;;;5069739;28;19909;-62
2022/05/20 13:29:07;;;;;;;;;;;;;;;;;;5070122;28;19905;-63
2022/05/20 13:31:33;;;;;;;;;;;;;;;;;;5069935;28;19905;-64
2022/05/20 13:33:58;;;;;;;;;;;;;;;;;;5069580;28;20300;-61
2022/05/20 13:36:24;;;;;;;;;;;;;;;;;;5069520;28;19904;-62
2022/05/20 13:38:50;;;;;;;;;;;;;;;;;;5070136;28;20387;-62
2022/05/20 13:41:16;;;;;;;;;;;;;;;;;;5070077;28;20430;-63
2022/05/20 13:43:42;;;;;;;;;;;;;;;;;;5069840;28;19908;-60
2022/05/20 13:51:37;;;;;;;;;;;;;;;;;;5069036;28;19911;-63
2022/05/20 13:54:03;;;;;;;;;;;;;;;;;;5069403;28;19916;-60
2022/05/20 13:56:29;;;;;;;;;;;;;;;;;;5069276;28;19904;-63
2022/05/20 13:58:55;;;;;;;;;;;;;;;;;;5069484;28;19905;-61
2022/05/20 14:01:21;;;;;;;;;;;;;;;;;;5070196;28;19919;-61
2022/05/20 14:03:47;;;;;;;;;;;;;;;;;;5068968;28;20042;-62
2022/05/20 14:06:13;;;;;;;;;;;;;;;;;;5068974;28;19912;-61
2022/05/20 14:08:38;;;;;;;;;;;;;;;;;;5068958;28;19904;-61
2022/05/20 14:11:05;;;;;;;;;;;;;;;;;;5068056;28;19912;-60
2022/05/20 14:13:31;;;;;;;;;;;;;;;;;;5069893;28;20295;-63
2022/05/20 14:15:57;;;;;;;;;;;;;;;;;;5067230;28;19909;-62
2022/05/20 14:18:23;;;;;;;;;;;;;;;;;;5069564;28;19911;-61
2022/05/20 14:20:49;;;;;;;;;;;;;;;;;;5069546;28;19907;-62
2022/05/20 14:23:15;;;;;;;;;;;;;;;;;;5069940;28;19904;-61
2022/05/20 14:25:41;;;;;;;;;;;;;;;;;;5067822;28;20295;-62
2022/05/20 14:28:07;;;;;;;;;;;;;;;;;;5069136;28;19904;-61
2022/05/20 14:30:32;;;;;;;;;;;;;;;;;;5069214;28;20317;-60
2022/05/20 14:32:58;;;;;;;;;;;;;;;;;;5069057;28;19950;-63
2022/05/20 14:35:24;;;;;;;;;;;;;;;;;;5069051;28;20280;-62
2022/05/20 14:37:50;;;;;;;;;;;;;;;;;;5068532;28;19932;-63
2022/05/20 14:40:16;;;;;;;;;;;;;;;;;;5069461;28;20260;-61
2022/05/20 14:42:42;;;;;;;;;;;;;;;;;;5068890;28;19941;-61
2022/05/20 14:45:08;;;;;;;;;;;;;;;;;;5068773;28;20310;-59
2022/05/20 14:47:34;;;;;;;;;;;;;;;;;;5068912;28;19909;-61
2022/05/20 14:50:00;;;;;;;;;;;;;;;;;;5068655;28;19927;-62
2022/05/20 14:52:26;;;;;;;;;;;;;;;;;;5068673;28;19966;-60
2022/05/20 14:54:52;;;;;;;;;;;;;;;;;;5068598;28;19912;-60
2022/05/20 14:57:18;;;;;;;;;;;;;;;;;;5069181;28;19957;-61
2022/05/20 14:59:44;;;;;;;;;;;;;;;;;;5068654;28;19994;-60
2022/05/20 15:02:10;;;;;;;;;;;;;;;;;;5068563;28;20273;-62
2022/05/20 15:04:35;;;;;;;;;;;;;;;;;;5068510;28;19911;-62
2022/05/20 15:07:01;;;;;;;;;;;;;;;;;;5068459;28;19908;-62
2022/05/20 15:09:27;;;;;;;;;;;;;;;;;;5068491;28;19955;-61
2022/05/20 15:11:53;;;;;;;;;;;;;;;;;;5068339;28;20099;-62
2022/05/20 15:14:19;;;;;;;;;;;;;;;;;;5069015;28;20417;-63
2022/05/20 15:16:45;;;;;;;;;;;;;;;;;;5068391;28;19904;-61
2022/05/20 15:19:11;;;;;;;;;;;;;;;;;;5068596;28;19947;-62
2022/05/20 15:21:37;;;;;;;;;;;;;;;;;;5068383;28;19940;-59
2022/05/20 15:24:04;;;;;;;;;;;;;;;;;;5068363;28;20398;-60
2022/05/20 15:26:29;;;;;;;;;;;;;;;;;;5068001;28;20363;-63
2022/05/20 15:28:55;;;;;;;;;;;;;;;;;;5068262;28;19904;-62
2022/05/20 15:36:50;;;;;;;;;;;;;;;;;;5068760;28;20348;-60
2022/05/20 15:39:16;;;;;;;;;;;;;;;;;;5068222;28;19943;-61
2022/05/20 15:41:42;;;;;;;;;;;;;;;;;;5068145;28;19977;-60
2022/05/20 15:44:08;;;;;;;;;;;;;;;;;;5068173;28;20371;-61
2022/05/20 15:46:34;;;;;;;;;;;;;;;;;;5067962;28;19912;-61
2022/05/20 15:49:00;;;;;;;;;;;;;;;;;;5068762;28;19904;-60
2022/05/20 15:51:26;;;;;;;;;;;;;;;;;;5072061;28;19904;-60
2022/05/20 15:53:52;;;;;;;;;;;;;;;;;;5072630;28;20453;-60
2022/05/20 15:56:18;;;;;;;;;;;;;;;;;;5072400;28;19913;-61
2022/05/20 15:58:45;;;;;;;;;;;;;;;;;;5072240;28;20294;-60
2022/05/20 16:01:11;;;;;;;;;;;;;;;;;;5071945;28;19912;-59
2022/05/20 16:03:37;;;;;;;;;;;;;;;;;;5071794;28;19904;-61
2022/05/20 16:06:03;;;;;;;;;;;;;;;;;;5071757;28;19916;-60
2022/05/20 16:08:28;;;;;;;;;;;;;;;;;;5071196;28;20135;-62
2022/05/20 16:10:54;;;;;;;;;;;;;;;;;;5071028;28;20264;-62
2022/05/20 16:13:20;;;;;;;;;;;;;;;;;;5071256;28;19916;-63
2022/05/20 16:15:46;;;;;;;;;;;;;;;;;;5071632;28;19950;-59
2022/05/20 16:18:12;;;;;;;;;;;;;;;;;;5071584;28;20359;-61
2022/05/20 16:20:38;;;;;;;;;;;;;;;;;;5071414;28;19909;-60
2022/05/20 16:23:04;;;;;;;;;;;;;;;;;;5071337;28;19908;-60
2022/05/20 16:25:30;;;;;;;;;;;;;;;;;;5072054;28;20398;-61
2022/05/20 16:27:56;;;;;;;;;;;;;;;;;;5071582;28;19904;-60
2022/05/20 16:30:22;;;;;;;;;;;;;;;;;;5071496;28;19908;-60
2022/05/20 16:32:48;;;;;;;;;;;;;;;;;;5071363;28;20370;-60
2022/05/20 16:35:14;;;;;;;;;;;;;;;;;;5071341;28;19933;-63
2022/05/20 16:37:39;;;;;;;;;;;;;;;;;;5071328;28;19904;-60
2022/05/20 16:40:05;;;;;;;;;;;;;;;;;;5071204;28;19911;-62
2022/05/20 16:42:31;;;;;;;;;;;;;;;;;;5071847;28;19905;-61
2022/05/20 16:44:57;;;;;;;;;;;;;;;;;;5071838;28;19908;-60
2022/05/20 16:47:23;;;;;;;;;;;;;;;;;;5071180;28;19934;-61
2022/05/20 16:49:49;;;;;;;;;;;;;;;;;;5071027;28;19905;-64
2022/05/20 16:52:17;;;;;;;;;;;;;;;;;;5071056;28;19911;-63
2022/05/20 16:54:43;;;;;;;;;;;;;;;;;;5071013;28;20419;-60
2022/05/20 17:02:38;;;;;;;;;;;;;;;;;;5070598;28;19911;-61
2022/05/20 17:05:04;;;;;;;;;;;;;;;;;;5070876;28;19908;-61
2022/05/20 17:07:31;;;;;;;;;;;;;;;;;;5071367;28;19908;-60
2022/05/20 17:09:57;;;;;;;;;;;;;;;;;;5070830;28;20314;-61
2022/05/20 17:12:23;;;;;;;;;;;;;;;;;;5070688;28;19912;-60
2022/05/20 17:14:49;;;;;;;;;;;;;;;;;;5069104;28;19909;-62
2022/05/20 17:17:14;;;;;;;;;;;;;;;;;;5070533;28;20440;-60
2022/05/20 17:19:40;;;;;;;;;;;;;;;;;;5070596;28;19911;-60
2022/05/20 17:24:51;;;;;;;;;;;;;;;;;;5070433;28;19973;-63
2022/05/20 17:27:17;;;;;;;;;;;;;;;;;;5070161;28;19908;-61
2022/05/20 17:29:43;;;;;;;;;;;;;;;;;;5070445;28;19940;-61